createdAt,value
2024-01-31T00:03:09.596Z,36.30
2024-01-31T00:06:23.448Z,36.20
2024-01-31T00:09:33.649Z,36.30
2024-01-31T00:12:46.518Z,36.10
2024-01-31T00:15:59.496Z,36.00
2024-01-31T00:19:09.639Z,35.90
2024-01-31T00:22:20.875Z,36.00
2024-01-31T00:25:31.698Z,35.90
2024-01-31T00:28:43.192Z,35.90
2024-01-31T00:31:55.956Z,36.00
2024-01-31T00:35:05.848Z,36.10
2024-01-31T00:38:23.925Z,36.30
2024-01-31T00:41:36.976Z,36.30
2024-01-31T00:44:51.151Z,36.30
2024-01-31T00:48:06.578Z,36.30
2024-01-31T00:51:18.279Z,36.60
2024-01-31T00:54:31.879Z,36.70
2024-01-31T00:57:40.698Z,36.50
2024-01-31T01:00:54.695Z,36.50
2024-01-31T01:04:06.406Z,36.50
2024-01-31T01:07:18.634Z,36.40
2024-01-31T01:10:30.060Z,36.40
2024-01-31T01:13:40.113Z,36.50
2024-01-31T01:16:55.101Z,36.70
2024-01-31T01:20:05.837Z,36.70
2024-01-31T01:23:18.698Z,37.00
2024-01-31T01:26:31.115Z,37.20
2024-01-31T01:29:41.018Z,37.20
2024-01-31T01:32:53.580Z,37.90
2024-01-31T01:36:06.993Z,37.40
2024-01-31T01:39:16.625Z,37.00
2024-01-31T01:42:26.433Z,36.60
2024-01-31T01:45:40.604Z,36.60
2024-01-31T01:48:53.952Z,36.60
2024-01-31T01:52:08.642Z,36.60
2024-01-31T01:55:22.646Z,36.70
2024-01-31T01:58:34.982Z,36.80
2024-01-31T02:01:48.728Z,36.80
2024-01-31T02:05:02.676Z,36.90
2024-01-31T02:08:13.115Z,36.90
2024-01-31T02:11:25.016Z,36.80
2024-01-31T02:14:38.980Z,36.90
2024-01-31T02:17:53.100Z,37.00
2024-01-31T02:21:06.103Z,36.90
2024-01-31T02:24:18.297Z,36.90
2024-01-31T02:27:34.011Z,36.80
2024-01-31T02:30:47.588Z,36.80
2024-01-31T02:33:58.780Z,36.80
2024-01-31T02:37:09.610Z,36.70
2024-01-31T02:40:24.225Z,36.80
2024-01-31T02:43:37.471Z,36.70
2024-01-31T02:46:49.448Z,36.80
2024-01-31T02:50:00.317Z,36.60
2024-01-31T02:53:16.941Z,36.50
2024-01-31T02:56:32.527Z,36.60
2024-01-31T02:59:42.129Z,36.60
2024-01-31T03:02:56.063Z,36.50
2024-01-31T03:06:08.474Z,36.50
2024-01-31T03:09:24.860Z,36.50
2024-01-31T03:12:36.345Z,36.90
2024-01-31T03:15:53.071Z,37.10
2024-01-31T03:19:06.128Z,37.10
2024-01-31T03:22:18.649Z,37.20
2024-01-31T03:25:28.975Z,37.20
2024-01-31T03:28:43.828Z,37.00
2024-01-31T03:31:57.555Z,37.00
2024-01-31T03:35:13.967Z,37.00
2024-01-31T03:38:25.860Z,37.60
2024-01-31T03:41:37.635Z,36.90
2024-01-31T03:44:48.699Z,36.90
2024-01-31T03:48:00.187Z,36.90
2024-01-31T03:51:09.826Z,36.90
2024-01-31T03:54:23.439Z,36.90
2024-01-31T03:57:35.321Z,36.90
2024-01-31T04:00:48.024Z,36.80
2024-01-31T04:03:58.880Z,36.70
2024-01-31T04:07:11.397Z,36.80
2024-01-31T04:10:24.486Z,36.70
2024-01-31T04:13:35.601Z,36.70
2024-01-31T04:16:48.692Z,36.70
2024-01-31T04:20:01.382Z,36.60
2024-01-31T04:23:11.263Z,36.70
2024-01-31T04:26:26.187Z,36.80
2024-01-31T04:29:37.036Z,36.70
2024-01-31T04:32:47.944Z,36.70
2024-01-31T04:36:01.577Z,36.60
2024-01-31T04:39:16.008Z,36.60
2024-01-31T04:42:28.923Z,36.70
2024-01-31T04:45:43.255Z,36.80
2024-01-31T04:48:51.679Z,36.80
2024-01-31T04:52:01.951Z,36.80
2024-01-31T04:55:16.958Z,36.80
2024-01-31T04:58:27.555Z,36.70
2024-01-31T05:01:42.068Z,36.70
2024-01-31T05:04:52.804Z,36.70
2024-01-31T05:08:04.644Z,36.50
2024-01-31T05:11:14.083Z,36.50
2024-01-31T05:14:22.077Z,36.50
2024-01-31T05:17:35.079Z,36.40
2024-01-31T05:20:49.295Z,36.50
2024-01-31T05:24:00.664Z,36.40
2024-01-31T05:27:14.502Z,36.50
2024-01-31T05:30:24.206Z,36.40
2024-01-31T05:33:39.648Z,36.40
2024-01-31T05:36:49.630Z,36.30
2024-01-31T05:40:03.211Z,36.40
2024-01-31T05:43:15.585Z,36.30
2024-01-31T05:46:27.993Z,36.30
2024-01-31T05:49:40.464Z,36.30
2024-01-31T05:52:53.873Z,36.30
2024-01-31T05:56:01.882Z,36.30
2024-01-31T05:59:10.527Z,36.30
2024-01-31T06:02:22.184Z,36.20
2024-01-31T06:05:32.236Z,36.20
2024-01-31T06:08:46.312Z,36.20
2024-01-31T06:11:58.960Z,36.10
2024-01-31T06:15:15.118Z,36.30
2024-01-31T06:18:28.625Z,36.50
2024-01-31T06:21:40.320Z,36.70
2024-01-31T06:24:52.875Z,36.70
2024-01-31T06:28:03.104Z,36.90
2024-01-31T06:31:18.671Z,37.00
2024-01-31T06:34:31.452Z,37.10
2024-01-31T06:37:42.847Z,37.10
2024-01-31T06:40:56.755Z,36.80
2024-01-31T06:44:07.946Z,36.70
2024-01-31T06:47:21.722Z,36.80
2024-01-31T06:50:33.483Z,37.00
2024-01-31T06:53:42.961Z,37.60
2024-01-31T06:56:55.603Z,37.10
2024-01-31T07:00:12.756Z,37.10
2024-01-31T07:03:27.164Z,37.10
2024-01-31T07:06:40.107Z,37.10
2024-01-31T07:09:55.473Z,37.00
2024-01-31T07:13:05.039Z,37.00
2024-01-31T07:16:19.819Z,37.00
2024-01-31T07:19:31.102Z,36.90
2024-01-31T07:22:41.671Z,36.90
2024-01-31T07:25:55.196Z,36.90
2024-01-31T07:29:06.475Z,36.90
2024-01-31T07:32:16.043Z,36.90
2024-01-31T07:35:27.774Z,36.90
2024-01-31T07:38:38.590Z,36.70
2024-01-31T07:41:51.323Z,36.70
2024-01-31T07:45:06.731Z,36.70
2024-01-31T07:48:18.486Z,36.60
2024-01-31T07:51:28.745Z,36.70
2024-01-31T07:54:41.968Z,36.50
2024-01-31T07:57:54.590Z,36.80
2024-01-31T08:01:07.091Z,37.10
2024-01-31T08:04:16.520Z,37.20
2024-01-31T08:07:30.763Z,37.10
2024-01-31T08:10:48.616Z,37.10
2024-01-31T08:13:59.941Z,37.20
2024-01-31T08:17:14.296Z,37.30
2024-01-31T08:20:26.363Z,37.20
2024-01-31T08:23:38.185Z,36.80
2024-01-31T08:26:49.821Z,36.80
2024-01-31T08:30:01.635Z,36.90
2024-01-31T08:33:11.383Z,37.10
2024-01-31T08:36:29.961Z,37.20
2024-01-31T08:39:38.408Z,37.20
2024-01-31T08:42:49.487Z,37.20
2024-01-31T08:46:04.839Z,37.20
2024-01-31T08:49:17.550Z,37.10
2024-01-31T08:52:31.161Z,37.10
2024-01-31T08:55:46.946Z,37.10
2024-01-31T08:58:54.868Z,37.20
2024-01-31T09:02:11.426Z,37.00
2024-01-31T09:05:20.438Z,37.00
2024-01-31T09:08:32.027Z,37.00
2024-01-31T09:11:46.786Z,36.90
2024-01-31T09:15:00.189Z,36.90
2024-01-31T09:18:13.399Z,36.90
2024-01-31T09:21:25.928Z,36.90
2024-01-31T09:24:38.997Z,36.90
2024-01-31T09:27:50.867Z,36.80
2024-01-31T09:31:02.367Z,36.80
2024-01-31T09:34:14.350Z,36.80
2024-01-31T09:37:27.325Z,36.80
2024-01-31T09:40:40.740Z,36.90
2024-01-31T09:43:54.908Z,37.30
2024-01-31T09:47:09.647Z,37.40
2024-01-31T09:50:22.248Z,37.50
2024-01-31T09:53:39.531Z,37.40
2024-01-31T09:56:52.045Z,37.40
2024-01-31T10:00:03.856Z,37.50
2024-01-31T10:03:13.513Z,37.50
2024-01-31T10:06:25.775Z,37.30
2024-01-31T10:09:38.949Z,37.00
2024-01-31T10:12:49.238Z,37.00
2024-01-31T10:16:01.948Z,37.10
2024-01-31T10:19:16.794Z,37.20
2024-01-31T10:22:33.495Z,37.30
2024-01-31T10:25:45.112Z,37.30
2024-01-31T10:29:04.563Z,37.30
2024-01-31T10:32:11.516Z,37.30
2024-01-31T10:35:34.117Z,37.20
2024-01-31T10:38:36.054Z,37.20
2024-01-31T10:41:47.989Z,37.10
2024-01-31T10:44:58.776Z,37.10
2024-01-31T10:48:10.090Z,37.10
2024-01-31T10:51:22.413Z,37.10
2024-01-31T10:54:38.696Z,37.10
2024-01-31T10:57:50.609Z,37.10
2024-01-31T11:01:02.496Z,37.00
2024-01-31T11:04:15.683Z,37.50
2024-01-31T11:07:31.000Z,36.90
2024-01-31T11:10:41.528Z,36.90
2024-01-31T11:13:56.377Z,36.90
2024-01-31T11:17:21.297Z,36.90
2024-01-31T11:20:34.678Z,36.90
2024-01-31T11:23:41.879Z,36.80
2024-01-31T11:26:54.655Z,36.90
2024-01-31T11:30:11.361Z,36.80
2024-01-31T11:33:21.921Z,37.20
2024-01-31T11:36:29.726Z,37.30
2024-01-31T11:39:39.978Z,37.20
2024-01-31T11:42:49.572Z,37.40
2024-01-31T11:45:58.513Z,37.40
2024-01-31T11:49:09.222Z,37.40
2024-01-31T11:52:18.251Z,37.70
2024-01-31T11:55:28.360Z,37.60
2024-01-31T11:58:41.277Z,37.20
2024-01-31T12:01:53.011Z,37.20
2024-01-31T12:05:07.696Z,37.50
2024-01-31T12:08:19.632Z,37.70
2024-01-31T12:11:28.413Z,37.60
2024-01-31T12:14:39.324Z,37.90
2024-01-31T12:17:52.389Z,37.70
2024-01-31T12:21:08.442Z,37.50
2024-01-31T12:24:20.337Z,37.50
2024-01-31T12:27:31.200Z,37.90
2024-01-31T12:30:43.361Z,38.80
2024-01-31T12:33:55.373Z,38.60
2024-01-31T12:37:08.162Z,38.90
2024-01-31T12:40:29.405Z,38.90
2024-01-31T12:43:39.171Z,38.80
2024-01-31T12:46:52.575Z,39.10
2024-01-31T12:50:09.678Z,39.50
2024-01-31T12:53:24.108Z,39.70
2024-01-31T12:56:35.774Z,39.70
2024-01-31T12:59:45.998Z,39.60
2024-01-31T13:03:01.099Z,39.60
2024-01-31T13:06:13.669Z,39.60
2024-01-31T13:09:26.351Z,39.60
2024-01-31T13:12:37.659Z,39.40
2024-01-31T13:15:51.437Z,39.20
2024-01-31T13:19:06.964Z,39.20
2024-01-31T13:22:19.894Z,38.60
2024-01-31T13:25:32.936Z,38.90
2024-01-31T13:28:44.239Z,38.80
2024-01-31T13:31:56.431Z,38.80
2024-01-31T13:35:12.139Z,38.70
2024-01-31T13:38:21.624Z,38.70
2024-01-31T13:41:35.645Z,38.80
2024-01-31T13:44:47.206Z,39.00
2024-01-31T13:47:58.454Z,39.10
2024-01-31T13:51:14.159Z,39.20
2024-01-31T13:54:27.914Z,39.10
2024-01-31T13:57:40.979Z,39.10
2024-01-31T14:00:53.098Z,39.10
2024-01-31T14:04:10.083Z,39.10
2024-01-31T14:07:26.888Z,39.10
2024-01-31T14:10:38.881Z,39.10
2024-01-31T14:13:50.662Z,39.00
2024-01-31T14:17:04.862Z,38.90
2024-01-31T14:20:15.752Z,38.80
2024-01-31T14:23:42.151Z,38.80
2024-01-31T14:26:38.901Z,38.60
2024-01-31T14:29:51.306Z,38.50
2024-01-31T14:33:03.488Z,38.50
2024-01-31T14:36:16.122Z,38.70
2024-01-31T14:39:31.391Z,38.60
2024-01-31T14:42:47.926Z,38.40
2024-01-31T14:45:59.669Z,38.40
2024-01-31T14:49:14.651Z,38.30
2024-01-31T14:52:28.615Z,38.20
2024-01-31T14:55:39.675Z,37.80
2024-01-31T14:58:51.954Z,37.90
2024-01-31T15:02:07.053Z,38.10
2024-01-31T15:05:25.340Z,38.40
2024-01-31T15:08:39.426Z,38.40
2024-01-31T15:11:52.450Z,38.40
2024-01-31T15:15:00.606Z,38.40
2024-01-31T15:18:10.979Z,38.50
2024-01-31T15:21:27.269Z,38.50
2024-01-31T15:24:40.162Z,38.50
2024-01-31T15:27:56.064Z,38.40
2024-01-31T15:31:10.549Z,38.40
2024-01-31T15:34:24.073Z,38.30
2024-01-31T15:37:36.627Z,38.30
2024-01-31T15:40:47.910Z,38.30
2024-01-31T15:44:01.096Z,38.20
2024-01-31T15:47:14.428Z,38.20
2024-01-31T15:50:28.367Z,38.10
2024-01-31T15:53:40.614Z,38.00
2024-01-31T15:56:55.285Z,38.00
2024-01-31T16:00:09.281Z,37.90
2024-01-31T16:03:22.624Z,37.90
2024-01-31T16:06:36.905Z,37.80
2024-01-31T16:09:50.887Z,37.80
2024-01-31T16:13:02.329Z,37.90
2024-01-31T16:16:13.282Z,37.80
2024-01-31T16:19:30.443Z,37.80
2024-01-31T16:22:43.459Z,37.80
2024-01-31T16:25:57.083Z,37.70
2024-01-31T16:29:09.445Z,37.80
2024-01-31T16:32:24.047Z,37.70
2024-01-31T16:35:36.900Z,37.80
2024-01-31T16:38:50.411Z,37.70
2024-01-31T16:42:00.820Z,37.60
2024-01-31T16:45:15.412Z,37.60
2024-01-31T16:48:27.585Z,37.60
2024-01-31T16:51:38.619Z,37.60
2024-01-31T16:54:48.655Z,37.50
2024-01-31T16:57:59.811Z,37.50
2024-01-31T17:01:13.407Z,37.50
2024-01-31T17:04:25.330Z,37.50
2024-01-31T17:07:41.018Z,37.50
2024-01-31T17:10:54.933Z,37.40
2024-01-31T17:14:06.842Z,37.30
2024-01-31T17:17:16.202Z,37.30
2024-01-31T17:20:29.490Z,37.60
2024-01-31T17:23:38.021Z,38.70
2024-01-31T17:26:51.419Z,38.90
2024-01-31T17:30:01.695Z,39.40
2024-01-31T17:33:16.858Z,39.10
2024-01-31T17:36:31.660Z,38.80
2024-01-31T17:39:41.551Z,38.70
2024-01-31T17:42:57.133Z,38.50
2024-01-31T17:46:08.738Z,38.30
2024-01-31T17:49:21.003Z,38.00
2024-01-31T17:52:35.565Z,37.90
2024-01-31T17:55:47.374Z,38.00
2024-01-31T17:59:00.648Z,38.20
2024-01-31T18:02:11.881Z,38.30
2024-01-31T18:05:23.289Z,38.50
2024-01-31T18:08:36.367Z,38.50
2024-01-31T18:11:47.603Z,38.50
2024-01-31T18:14:57.068Z,38.60
2024-01-31T18:18:08.975Z,38.60
2024-01-31T18:21:19.676Z,38.50
2024-01-31T18:24:35.297Z,38.40
2024-01-31T18:27:50.365Z,38.30
2024-01-31T18:31:02.505Z,38.20
2024-01-31T18:34:13.731Z,38.10
2024-01-31T18:37:25.389Z,38.00
2024-01-31T18:40:37.249Z,38.00
2024-01-31T18:43:49.081Z,37.90
2024-01-31T18:47:03.846Z,38.00
2024-01-31T18:50:19.248Z,38.00
2024-01-31T18:53:34.081Z,38.00
2024-01-31T18:56:45.473Z,38.00
2024-01-31T18:59:59.103Z,37.90
2024-01-31T19:03:08.217Z,38.00
2024-01-31T19:06:21.369Z,37.90
2024-01-31T19:09:34.689Z,38.00
2024-01-31T19:12:44.983Z,37.90
2024-01-31T19:15:57.232Z,38.00
2024-01-31T19:19:07.888Z,37.80
2024-01-31T19:22:22.619Z,37.80
2024-01-31T19:25:36.000Z,37.70
2024-01-31T19:28:50.371Z,37.60
2024-01-31T19:32:01.942Z,37.60
2024-01-31T19:35:16.100Z,37.70
2024-01-31T19:38:26.810Z,37.70
2024-01-31T19:41:38.920Z,37.70
2024-01-31T19:44:49.723Z,37.70
2024-01-31T19:48:03.410Z,37.70
2024-01-31T19:51:15.128Z,37.60
2024-01-31T19:54:26.033Z,37.60
2024-01-31T19:57:37.988Z,37.60
2024-01-31T20:00:52.290Z,37.50
2024-01-31T20:04:05.291Z,37.60
2024-01-31T20:07:15.650Z,37.50
2024-01-31T20:10:30.543Z,37.60
2024-01-31T20:13:44.807Z,37.60
2024-01-31T20:16:59.966Z,37.60
2024-01-31T20:20:16.897Z,37.60
2024-01-31T20:23:28.840Z,37.60
2024-01-31T20:26:40.266Z,37.60
2024-01-31T20:29:55.706Z,37.50
2024-01-31T20:33:08.962Z,37.40
2024-01-31T20:36:24.250Z,37.60
2024-01-31T20:39:36.256Z,37.40
2024-01-31T20:42:48.913Z,37.30
2024-01-31T20:45:58.626Z,37.10
2024-01-31T20:49:12.639Z,37.00
2024-01-31T20:52:24.169Z,37.00
2024-01-31T20:55:38.008Z,37.80
2024-01-31T20:58:49.058Z,37.20
2024-01-31T21:02:04.206Z,37.20
2024-01-31T21:05:18.607Z,37.20
2024-01-31T21:08:28.781Z,37.30
2024-01-31T21:11:40.460Z,37.40
2024-01-31T21:14:49.592Z,37.50
2024-01-31T21:18:03.300Z,37.30
2024-01-31T21:21:15.637Z,37.00
2024-01-31T21:24:30.817Z,36.80
2024-01-31T21:27:44.433Z,37.00
2024-01-31T21:30:55.761Z,37.20
2024-01-31T21:34:10.720Z,37.20
2024-01-31T21:37:22.284Z,37.40
2024-01-31T21:40:34.099Z,37.50
2024-01-31T21:43:44.281Z,37.60
2024-01-31T21:46:57.968Z,37.70
2024-01-31T21:50:10.655Z,37.80
2024-01-31T21:53:25.428Z,37.80
2024-01-31T21:56:41.215Z,37.80
2024-01-31T21:59:54.805Z,37.70
2024-01-31T22:03:07.766Z,37.60
2024-01-31T22:06:21.529Z,37.60
2024-01-31T22:09:35.624Z,37.50
2024-01-31T22:12:50.699Z,37.40
2024-01-31T22:16:05.673Z,37.40
2024-01-31T22:19:16.715Z,37.40
2024-01-31T22:22:28.542Z,37.60
2024-01-31T22:25:37.285Z,37.70
2024-01-31T22:28:51.426Z,38.00
2024-01-31T22:32:06.059Z,37.70
2024-01-31T22:35:17.786Z,37.60
2024-01-31T22:38:30.840Z,38.20
2024-01-31T22:41:44.594Z,37.50
2024-01-31T22:44:57.515Z,37.60
2024-01-31T22:48:13.179Z,37.60
2024-01-31T22:51:24.535Z,37.70
2024-01-31T22:54:43.852Z,37.80
2024-01-31T22:57:47.269Z,37.90
2024-01-31T23:00:59.912Z,37.90
2024-01-31T23:04:11.037Z,38.20
2024-01-31T23:07:24.377Z,39.20
2024-01-31T23:10:35.449Z,38.50
2024-01-31T23:13:49.397Z,38.60
2024-01-31T23:17:04.886Z,38.90
2024-01-31T23:20:17.925Z,38.40
2024-01-31T23:23:30.247Z,38.40
2024-01-31T23:26:43.413Z,38.60
2024-01-31T23:29:54.905Z,39.00
2024-01-31T23:33:06.861Z,38.80
2024-01-31T23:36:20.475Z,38.50
2024-01-31T23:39:29.802Z,38.20
2024-01-31T23:42:39.472Z,38.00
2024-01-31T23:45:50.849Z,38.00
2024-01-31T23:49:01.956Z,37.90
2024-01-31T23:52:15.483Z,37.90
2024-01-31T23:55:29.045Z,37.90
2024-01-31T23:58:42.432Z,37.90
